Airport ID:KO69
Update Time (UTC):13/06/2021 18:26
Wind Speed (Knots):11
Wind Direction (Magnetic):250
Temperature (°C):23
Dew Point (°C):14
Humidity (%):54
Altimeter (inHg):29.96
Density Altitude (Feet):1300
Visibility:10+
Clouds (Hundreds of feet):CLR
Present Weather:
METAR:METAR KO69 131825Z AUTO 26011G16KT 10SM CLR 23/14 A2996 RMK A01

The data displayed is for advisory purposes only and is not to be used for flight planning or operations.